LiveATC.Net - Listen to live air traffic control over the Internet!


ICAO: KSAF  IATA: SAF   Airport: Santa Fe Municipal Airport
City: Santa Fe   State/Province: New Mexico
Country: United States   Continent: North America
KSAF METAR Weather: KSAF 140953Z AUTO 17008KT 10SM CLR 01/M08 A3022 RMK AO2 SLP190 T00111083
KSAF Flight Activity (FlightAware)
KSAF Airport Info   (iFlightPlanner)
KSAF VFR Sectional Chart   (iFlightPlanner) 
KSAF IFR Low Chart   (iFlightPlanner) 

KSAF Tower
Feed Status: UP   Listeners: 0
Listen in your browser - HTML5 player (in browser, HTML5)
Click here to listen with your own player (launches your MP3 player)
Archive Access: KSAF Tower
FacilityFrequency
Santa Fe Tower/CTAF119.500

NOTICE

Unauthorized use prohibited. See LiveATC.net Terms of Service


Airport/ARTCC Code
Frequency Search
(e.g., 124.400, 128.75)
Site-wide search
 


Browse LiveATC Feeds
Top 50 LiveATC Feeds
LiveATC Feed Map
Bad Weather Areas

LiveATC FAQ
Offer LiveATC feed
Contact LiveATC.net
Press Inquiries

LiveATC on iPhone
LiveATC on Android

Windows Phone
Windows 8/10

LiveATC Mobile
(Mobile browser)

ATC Audio Archives
Interesting Recordings

LiveATC Forums


Home Page
About LiveATC.net
Make a Donation
Terms of Use
Privacy Policy

Canadian Air Freqs

AIRMETs/SIGMETs

FAA Airport Status
Nat'l Airspace Status
Arrival Demand Charts


Server Software By:
Icecast.org
Liquidsoap